Time;durP1;ratioP1;P1;durP2;ratioP2;P2;SDS_P1;SDS_P2;PMS_P1;PMS_P2;Temp;Humidity;BMP_temperature;BMP_pressure;BME280_temperature;BME280_humidity;BME280_pressure;Samples;Min_cycle;Max_cycle;Signal;HPM_P1;HPM_P2
2022/04/27 00:00:35;;;;;;;;;;;11.40;85.60;;;;;;5087884;28;20079;-76
2022/04/27 00:03:02;;;;;;;;;;;11.30;86.20;;;;;;5064471;28;19927;-74
2022/04/27 00:05:27;;;;;;;;;;;11.20;86.80;;;;;;5087604;28;19912;-75
2022/04/27 00:07:53;;;;;;;;;;;11.20;86.60;;;;;;5082946;28;19918;-66
2022/04/27 00:10:19;;;;;;;;;;;11.20;87.40;;;;;;5085770;28;20389;-72
2022/04/27 00:12:45;;;;;;;;;;;11.10;90.00;;;;;;5086800;28;19916;-72
2022/04/27 00:15:11;;;;;;;;;;;11.00;90.60;;;;;;5085480;28;19912;-73
2022/04/27 00:17:36;;;;;;;;;;;10.90;91.20;;;;;;5087068;28;20350;-73
2022/04/27 00:20:02;;;;;;;;;;;10.80;91.30;;;;;;5085666;28;20010;-74
2022/04/27 00:22:27;;;;;;;;;;;10.80;92.00;;;;;;5087420;28;19912;-75
2022/04/27 00:24:53;;;;;;;;;;;10.70;92.20;;;;;;5085662;28;19943;-73
2022/04/27 00:27:18;;;;;;;;;;;10.70;92.00;;;;;;5086900;28;19912;-78
2022/04/27 00:29:44;;;;;;;;;;;10.70;91.90;;;;;;5085848;28;19955;-79
2022/04/27 00:32:09;;;;;;;;;;;10.70;91.70;;;;;;5086583;28;19916;-75
2022/04/27 00:34:34;;;;;;;;;;;10.70;92.00;;;;;;5082871;28;19915;-70
2022/04/27 00:37:00;;;;;;;;;;;10.60;93.80;;;;;;5085383;28;20025;-73
2022/04/27 00:39:26;;;;;;;;;;;10.50;94.40;;;;;;5066834;28;19908;-75
2022/04/27 00:42:01;;;;;;;;;;;10.40;94.10;;;;;;5084750;28;19919;-74
2022/04/27 00:44:27;;;;;;;;;;;10.40;94.10;;;;;;5084601;28;19923;-65
2022/04/27 00:46:53;;;;;;;;;;;10.40;94.20;;;;;;5085019;28;20282;-66
2022/04/27 00:49:18;;;;;;;;;;;10.30;94.60;;;;;;5080519;28;20341;-65
2022/04/27 00:51:44;;;;;;;;;;;10.30;94.90;;;;;;5066626;28;19912;-65
2022/04/27 00:54:09;;;;;;;;;;;10.30;94.80;;;;;;5087015;28;19919;-65
2022/04/27 00:56:37;;;;;;;;;;;10.20;96.00;;;;;;5085126;28;20263;-64
2022/04/27 00:59:02;;;;;;;;;;;10.20;95.60;;;;;;5086923;28;19915;-65
2022/04/27 01:01:28;;;;;;;;;;;10.20;95.80;;;;;;5084872;28;19908;-72
2022/04/27 01:03:53;;;;;;;;;;;10.10;96.00;;;;;;5086847;28;19908;-65
2022/04/27 01:06:19;;;;;;;;;;;10.00;96.70;;;;;;5085280;28;20019;-69
2022/04/27 01:08:44;;;;;;;;;;;10.00;96.90;;;;;;5086866;28;19919;-69
2022/04/27 01:11:10;;;;;;;;;;;10.00;97.10;;;;;;5084944;28;19912;-69
2022/04/27 01:13:38;;;;;;;;;;;10.00;96.60;;;;;;5076603;28;19911;-69
2022/04/27 01:16:03;;;;;;;;;;;10.00;96.70;;;;;;5084546;28;20370;-69
2022/04/27 01:18:29;;;;;;;;;;;10.00;97.00;;;;;;5086928;28;19904;-68
2022/04/27 01:20:54;;;;;;;;;;;9.90;97.60;;;;;;5084571;28;19916;-69
2022/04/27 01:23:19;;;;;;;;;;;9.80;98.50;;;;;;5086776;28;19915;-69
2022/04/27 01:25:50;;;;;;;;;;;9.80;98.30;;;;;;5085259;28;20436;-69
2022/04/27 01:28:19;;;;;;;;;;;9.80;98.40;;;;;;5085843;28;20222;-68
2022/04/27 01:30:45;;;;;;;;;;;9.60;99.40;;;;;;5083762;28;19939;-69
2022/04/27 01:33:11;;;;;;;;;;;9.60;99.90;;;;;;5085749;28;20421;-67
2022/04/27 01:35:37;;;;;;;;;;;9.60;99.90;;;;;;5083576;28;19951;-69
2022/04/27 01:38:03;;;;;;;;;;;9.50;99.90;;;;;;5084884;28;19965;-69
2022/04/27 01:40:29;;;;;;;;;;;9.50;99.90;;;;;;5083130;28;19908;-70
2022/04/27 01:42:54;;;;;;;;;;;9.40;99.90;;;;;;5085605;28;19904;-70
2022/04/27 01:45:19;;;;;;;;;;;9.40;99.90;;;;;;5082931;28;19908;-70
2022/04/27 01:47:45;;;;;;;;;;;9.30;99.90;;;;;;5086092;28;19908;-70
2022/04/27 01:50:10;;;;;;;;;;;9.20;99.90;;;;;;5083163;28;19950;-70
2022/04/27 01:55:20;;;;;;;;;;;9.20;99.90;;;;;;5076082;28;19914;-69
2022/04/27 01:57:45;;;;;;;;;;;9.20;99.90;;;;;;5085657;28;20391;-65
2022/04/27 02:00:11;;;;;;;;;;;9.20;99.90;;;;;;5083632;28;19919;-67
2022/04/27 02:02:36;;;;;;;;;;;9.10;99.90;;;;;;5085270;28;20131;-66
2022/04/27 02:05:02;;;;;;;;;;;9.10;99.90;;;;;;5083811;28;20259;-64
2022/04/27 02:07:28;;;;;;;;;;;9.10;99.90;;;;;;5085475;28;19915;-65
2022/04/27 02:09:53;;;;;;;;;;;9.10;99.90;;;;;;5064849;28;19908;-65
2022/04/27 02:12:19;;;;;;;;;;;9.00;99.90;;;;;;5085558;28;19911;-64
2022/04/27 02:14:44;;;;;;;;;;;9.00;99.90;;;;;;5083242;28;19918;-68
2022/04/27 02:17:10;;;;;;;;;;;9.00;99.90;;;;;;5084984;28;19981;-67
2022/04/27 02:19:37;;;;;;;;;;;9.00;99.90;;;;;;5082302;28;19912;-64
2022/04/27 02:22:03;;;;;;;;;;;8.90;99.90;;;;;;5085719;28;19908;-69
2022/04/27 02:24:29;;;;;;;;;;;8.90;99.90;;;;;;5085464;28;20006;-67
2022/04/27 02:26:54;;;;;;;;;;;8.80;99.90;;;;;;5083442;28;19908;-68
2022/04/27 02:29:21;;;;;;;;;;;8.90;99.90;;;;;;5073147;28;19916;-67
2022/04/27 02:31:46;;;;;;;;;;;8.80;99.90;;;;;;5084277;28;19943;-67
2022/04/27 02:34:11;;;;;;;;;;;8.60;99.90;;;;;;5084987;28;19943;-68
2022/04/27 02:36:37;;;;;;;;;;;8.60;99.90;;;;;;5085300;28;19924;-68
2022/04/27 02:39:02;;;;;;;;;;;8.50;99.90;;;;;;5082567;28;19911;-67
2022/04/27 02:41:28;;;;;;;;;;;8.50;99.90;;;;;;5084946;28;19912;-69
2022/04/27 02:43:55;;;;;;;;;;;8.50;99.90;;;;;;5081182;28;20389;-69
2022/04/27 02:46:20;;;;;;;;;;;8.50;99.90;;;;;;5081725;28;19908;-70
2022/04/27 02:54:14;;;;;;;;;;;8.40;99.90;;;;;;5075799;28;19919;-68
2022/04/27 02:56:40;;;;;;;;;;;8.40;99.90;;;;;;5086702;28;19911;-68
2022/04/27 02:59:05;;;;;;;;;;;8.50;99.90;;;;;;5086987;28;20002;-68
2022/04/27 03:01:31;;;;;;;;;;;8.40;99.90;;;;;;5088081;28;20128;-69
2022/04/27 03:03:56;;;;;;;;;;;8.40;99.90;;;;;;5086856;28;19908;-69
2022/04/27 03:06:21;;;;;;;;;;;8.30;99.90;;;;;;5088632;28;20002;-66
2022/04/27 03:08:47;;;;;;;;;;;8.30;99.90;;;;;;5085920;28;19931;-66
2022/04/27 03:11:12;;;;;;;;;;;8.30;99.90;;;;;;5088816;28;19908;-67
2022/04/27 03:13:38;;;;;;;;;;;8.30;99.90;;;;;;5087176;28;19911;-68
2022/04/27 03:16:03;;;;;;;;;;;8.20;99.90;;;;;;5088780;28;19982;-68
2022/04/27 03:18:29;;;;;;;;;;;8.20;99.90;;;;;;5087266;28;19922;-68
2022/04/27 03:20:55;;;;;;;;;;;8.20;99.90;;;;;;5088908;28;19922;-67
2022/04/27 03:23:20;;;;;;;;;;;8.10;99.90;;;;;;5078210;28;20285;-68
2022/04/27 03:25:46;;;;;;;;;;;8.20;99.90;;;;;;5088353;28;19908;-69
2022/04/27 03:28:14;;;;;;;;;;;8.10;99.90;;;;;;5086593;28;19912;-70
2022/04/27 03:30:39;;;;;;;;;;;8.10;99.90;;;;;;5088201;28;20374;-70
2022/04/27 03:33:05;;;;;;;;;;;8.00;99.90;;;;;;5086464;28;19919;-70
2022/04/27 03:35:31;;;;;;;;;;;8.00;99.90;;;;;;5088183;28;19919;-69
2022/04/27 03:37:58;;;;;;;;;;;8.00;99.90;;;;;;5086555;28;19939;-68
2022/04/27 03:40:24;;;;;;;;;;;8.00;99.90;;;;;;5088228;28;20263;-67
2022/04/27 03:42:49;;;;;;;;;;;7.90;99.90;;;;;;5086122;28;19911;-65
2022/04/27 03:45:15;;;;;;;;;;;8.10;99.90;;;;;;5087949;28;19912;-65
2022/04/27 03:47:40;;;;;;;;;;;8.10;99.90;;;;;;5086048;28;19919;-69
2022/04/27 03:50:06;;;;;;;;;;;8.20;99.90;;;;;;5088285;28;19939;-69
2022/04/27 03:52:32;;;;;;;;;;;8.20;99.90;;;;;;5085863;28;20341;-69
2022/04/27 03:55:00;;;;;;;;;;;8.20;99.90;;;;;;5087797;28;19958;-69
2022/04/27 03:57:26;;;;;;;;;;;8.20;99.90;;;;;;5085975;28;20207;-74
2022/04/27 03:59:51;;;;;;;;;;;8.30;99.90;;;;;;5087747;28;19914;-71
2022/04/27 04:02:17;;;;;;;;;;;8.30;99.90;;;;;;5085732;28;19958;-71
2022/04/27 04:04:42;;;;;;;;;;;8.20;99.90;;;;;;5087583;28;20020;-68
2022/04/27 04:07:07;;;;;;;;;;;8.30;99.90;;;;;;5085675;28;20446;-70
2022/04/27 04:09:33;;;;;;;;;;;8.20;99.90;;;;;;5087726;28;19950;-70
2022/04/27 04:11:58;;;;;;;;;;;8.20;99.90;;;;;;5085297;28;19908;-69
2022/04/27 04:14:23;;;;;;;;;;;8.30;99.90;;;;;;5088011;28;20662;-70
2022/04/27 04:16:49;;;;;;;;;;;8.30;99.90;;;;;;5085103;28;19923;-69
2022/04/27 04:19:14;;;;;;;;;;;8.30;99.90;;;;;;5069339;28;20006;-70
2022/04/27 04:21:40;;;;;;;;;;;8.30;99.90;;;;;;5087040;28;19916;-71
2022/04/27 04:24:05;;;;;;;;;;;8.30;99.90;;;;;;5085600;28;19916;-69
2022/04/27 04:29:15;;;;;;;;;;;8.30;99.90;;;;;;5088105;28;19997;-70
2022/04/27 04:31:41;;;;;;;;;;;8.40;99.90;;;;;;5086869;28;19912;-70
2022/04/27 04:34:06;;;;;;;;;;;8.30;99.90;;;;;;5085443;28;19916;-70
2022/04/27 04:36:32;;;;;;;;;;;8.30;99.90;;;;;;5086953;28;19923;-70
2022/04/27 04:38:58;;;;;;;;;;;8.40;99.90;;;;;;5085635;28;20447;-70
2022/04/27 04:41:23;;;;;;;;;;;8.40;99.90;;;;;;5086912;28;19912;-71
2022/04/27 04:43:48;;;;;;;;;;;8.40;99.90;;;;;;5084964;28;19908;-70
2022/04/27 04:46:14;;;;;;;;;;;8.30;99.90;;;;;;5086889;28;19908;-71
2022/04/27 04:48:39;;;;;;;;;;;8.20;99.90;;;;;;5084793;28;19958;-71
2022/04/27 04:51:05;;;;;;;;;;;8.40;99.90;;;;;;5086549;28;19912;-71
2022/04/27 04:53:30;;;;;;;;;;;8.50;99.90;;;;;;5084882;28;20429;-70
2022/04/27 04:55:56;;;;;;;;;;;8.60;99.90;;;;;;5086732;28;19918;-70
2022/04/27 04:58:21;;;;;;;;;;;8.60;99.90;;;;;;5084836;28;19977;-71
2022/04/27 05:00:48;;;;;;;;;;;8.70;99.90;;;;;;5086624;28;19912;-71
2022/04/27 05:03:14;;;;;;;;;;;8.70;99.90;;;;;;5084581;28;19951;-70
2022/04/27 05:05:40;;;;;;;;;;;8.70;99.90;;;;;;5086815;28;19954;-72
2022/04/27 05:08:07;;;;;;;;;;;8.80;99.90;;;;;;5066188;28;19907;-71
2022/04/27 05:10:33;;;;;;;;;;;8.90;99.90;;;;;;5086291;28;20262;-71
2022/04/27 05:12:58;;;;;;;;;;;8.90;99.90;;;;;;5084610;28;19912;-71
2022/04/27 05:15:24;;;;;;;;;;;9.00;99.90;;;;;;5086298;28;20012;-72
2022/04/27 05:17:49;;;;;;;;;;;9.20;99.90;;;;;;5083671;28;19916;-72
2022/04/27 05:20:15;;;;;;;;;;;9.40;99.90;;;;;;5085468;28;20367;-72
2022/04/27 05:22:40;;;;;;;;;;;9.50;99.90;;;;;;5072032;28;19954;-71
2022/04/27 05:25:09;;;;;;;;;;;9.50;99.90;;;;;;5086599;28;19904;-70
2022/04/27 05:27:35;;;;;;;;;;;9.60;99.90;;;;;;5082282;28;20014;-70
2022/04/27 05:32:45;;;;;;;;;;;9.60;99.90;;;;;;5083444;28;19990;-70
2022/04/27 05:35:11;;;;;;;;;;;9.60;99.90;;;;;;5081174;28;19912;-70
2022/04/27 05:37:37;;;;;;;;;;;9.60;99.90;;;;;;5083948;28;19920;-70
2022/04/27 05:40:03;;;;;;;;;;;9.70;99.90;;;;;;5086314;28;19940;-69
2022/04/27 05:42:30;;;;;;;;;;;9.80;99.90;;;;;;5083549;28;19911;-70
2022/04/27 05:44:55;;;;;;;;;;;9.80;99.90;;;;;;5085795;28;19908;-69
2022/04/27 05:47:23;;;;;;;;;;;10.00;99.90;;;;;;5083847;28;19908;-70
2022/04/27 05:49:52;;;;;;;;;;;10.10;99.90;;;;;;5086071;28;19908;-69
2022/04/27 05:52:18;;;;;;;;;;;10.20;99.90;;;;;;5082027;28;19911;-70
2022/04/27 05:54:44;;;;;;;;;;;10.10;99.90;;;;;;5086521;28;19914;-69
2022/04/27 05:57:09;;;;;;;;;;;10.20;99.90;;;;;;5083324;28;19919;-70
2022/04/27 05:59:35;;;;;;;;;;;10.30;99.90;;;;;;5085350;28;19907;-70
2022/04/27 06:02:00;;;;;;;;;;;10.40;99.90;;;;;;5083278;28;19912;-68
2022/04/27 06:04:26;;;;;;;;;;;10.40;99.90;;;;;;5085537;28;19912;-71
2022/04/27 06:06:55;;;;;;;;;;;10.40;99.90;;;;;;5083220;28;20422;-69
2022/04/27 06:09:20;;;;;;;;;;;10.40;99.90;;;;;;5085977;28;19912;-69
2022/04/27 06:11:46;;;;;;;;;;;10.40;99.90;;;;;;5085530;28;19918;-69
2022/04/27 06:14:11;;;;;;;;;;;10.60;99.90;;;;;;5083722;28;19914;-68
2022/04/27 06:16:36;;;;;;;;;;;10.70;99.90;;;;;;5084334;28;20278;-70
2022/04/27 06:19:02;;;;;;;;;;;10.70;99.30;;;;;;5065451;28;20319;-69
2022/04/27 06:21:31;;;;;;;;;;;10.80;98.80;;;;;;5085173;28;20022;-69
2022/04/27 06:23:57;;;;;;;;;;;10.70;99.40;;;;;;5083852;28;19964;-69
2022/04/27 06:26:23;;;;;;;;;;;10.60;99.70;;;;;;5085318;28;19919;-69
2022/04/27 06:28:48;;;;;;;;;;;10.70;99.70;;;;;;5083049;28;19978;-69
2022/04/27 06:31:13;;;;;;;;;;;10.90;99.20;;;;;;5085238;28;19919;-70
2022/04/27 06:33:39;;;;;;;;;;;11.10;97.90;;;;;;5083205;28;19911;-71
2022/04/27 06:36:04;;;;;;;;;;;11.20;97.60;;;;;;5085176;28;19912;-70
2022/04/27 06:38:30;;;;;;;;;;;11.20;97.20;;;;;;5083118;28;19908;-70
2022/04/27 06:40:55;;;;;;;;;;;11.20;97.40;;;;;;5084720;28;20373;-71
2022/04/27 06:43:21;;;;;;;;;;;11.20;96.80;;;;;;5083248;28;20001;-68
2022/04/27 06:45:46;;;;;;;;;;;11.40;96.60;;;;;;5084723;28;19912;-68
2022/04/27 06:48:12;;;;;;;;;;;11.50;95.80;;;;;;5083168;28;20279;-71
2022/04/27 06:50:38;;;;;;;;;;;11.60;95.90;;;;;;5084920;28;20358;-71
2022/04/27 06:53:04;;;;;;;;;;;11.60;95.70;;;;;;5083195;28;19912;-70
2022/04/27 06:55:30;;;;;;;;;;;11.70;95.20;;;;;;5085248;28;20548;-70
2022/04/27 06:57:55;;;;;;;;;;;11.90;95.20;;;;;;5082608;28;20023;-70
2022/04/27 07:00:21;;;;;;;;;;;11.90;95.30;;;;;;5084575;28;20290;-72
2022/04/27 07:02:47;;;;;;;;;;;12.00;94.50;;;;;;5074864;28;19964;-70
2022/04/27 07:05:17;;;;;;;;;;;12.00;94.80;;;;;;5084920;28;19911;-70
2022/04/27 07:07:45;;;;;;;;;;;12.20;94.90;;;;;;5082682;28;19912;-69
2022/04/27 07:10:12;;;;;;;;;;;12.20;94.70;;;;;;5082975;28;19965;-69
2022/04/27 07:12:38;;;;;;;;;;;12.10;95.40;;;;;;5081256;28;20351;-69
2022/04/27 07:15:03;;;;;;;;;;;12.20;95.00;;;;;;5083323;28;19918;-70
2022/04/27 07:17:29;;;;;;;;;;;12.30;94.40;;;;;;5084176;28;19912;-70
2022/04/27 07:19:54;;;;;;;;;;;12.50;94.00;;;;;;5082551;28;19916;-70
2022/04/27 07:22:19;;;;;;;;;;;12.50;93.20;;;;;;5084910;28;20282;-69
2022/04/27 07:24:45;;;;;;;;;;;12.60;93.10;;;;;;5082855;28;20228;-69
2022/04/27 07:27:11;;;;;;;;;;;12.60;93.00;;;;;;5084613;28;19912;-69
2022/04/27 07:29:36;;;;;;;;;;;12.50;93.30;;;;;;5082928;28;19957;-70
2022/04/27 07:32:02;;;;;;;;;;;12.70;92.80;;;;;;5085049;28;19977;-69
2022/04/27 07:34:27;;;;;;;;;;;12.80;92.80;;;;;;5082724;28;19915;-69
2022/04/27 07:36:53;;;;;;;;;;;12.90;92.20;;;;;;5084473;28;20321;-69
2022/04/27 07:39:18;;;;;;;;;;;12.90;92.50;;;;;;5082628;28;19934;-70
2022/04/27 07:41:47;;;;;;;;;;;13.00;92.50;;;;;;5084783;28;19912;-69
2022/04/27 07:44:12;;;;;;;;;;;13.10;92.00;;;;;;5086125;28;19915;-70
2022/04/27 07:46:38;;;;;;;;;;;13.20;91.00;;;;;;5088617;28;19911;-69
2022/04/27 07:49:03;;;;;;;;;;;13.30;90.70;;;;;;5086326;28;20620;-70
2022/04/27 07:51:28;;;;;;;;;;;13.30;90.60;;;;;;5088178;28;19957;-70
2022/04/27 07:53:54;;;;;;;;;;;13.30;90.30;;;;;;5088026;28;19912;-70
2022/04/27 07:56:19;;;;;;;;;;;13.40;89.20;;;;;;5086137;28;20651;-70
2022/04/27 07:58:45;;;;;;;;;;;13.40;88.90;;;;;;5084278;28;19915;-70
2022/04/27 08:01:10;;;;;;;;;;;13.50;85.70;;;;;;5086214;28;19965;-70
2022/04/27 08:03:36;;;;;;;;;;;13.50;85.10;;;;;;5088053;28;19911;-69
2022/04/27 08:06:03;;;;;;;;;;;13.40;88.30;;;;;;5083155;28;19912;-70
2022/04/27 08:08:29;;;;;;;;;;;13.60;83.50;;;;;;5088053;28;19912;-70
2022/04/27 08:10:54;;;;;;;;;;;13.60;81.60;;;;;;5086107;28;20019;-69
2022/04/27 08:13:20;;;;;;;;;;;13.80;81.20;;;;;;5088128;28;20349;-70
2022/04/27 08:15:45;;;;;;;;;;;13.80;80.00;;;;;;5080900;28;20563;-70
2022/04/27 08:18:11;;;;;;;;;;;13.80;79.10;;;;;;5087430;28;19959;-70
2022/04/27 08:23:21;;;;;;;;;;;14.00;76.20;;;;;;5087926;28;19919;-70
2022/04/27 08:25:47;;;;;;;;;;;13.80;75.30;;;;;;5085361;28;19916;-70
2022/04/27 08:28:13;;;;;;;;;;;13.80;72.00;;;;;;5086970;28;19916;-70
2022/04/27 08:30:40;;;;;;;;;;;13.80;75.20;;;;;;5085683;28;19922;-69
2022/04/27 08:33:06;;;;;;;;;;;14.20;75.40;;;;;;5087679;28;19951;-70
2022/04/27 08:35:32;;;;;;;;;;;14.20;72.00;;;;;;5085445;28;19912;-71
2022/04/27 08:38:01;;;;;;;;;;;14.20;70.70;;;;;;5086831;28;20319;-69
2022/04/27 08:40:27;;;;;;;;;;;14.30;69.70;;;;;;5077287;28;19984;-70
2022/04/27 08:42:53;;;;;;;;;;;14.40;70.50;;;;;;5071404;28;19981;-71
2022/04/27 08:45:19;;;;;;;;;;;14.50;71.40;;;;;;5085019;28;20374;-70
2022/04/27 08:47:45;;;;;;;;;;;14.50;71.40;;;;;;5086989;28;20533;-70
2022/04/27 08:50:15;;;;;;;;;;;14.50;70.60;;;;;;5084961;28;20216;-69
2022/04/27 08:52:41;;;;;;;;;;;14.60;69.80;;;;;;5086136;28;19942;-70
2022/04/27 08:55:07;;;;;;;;;;;14.60;71.60;;;;;;5074567;28;20238;-71
2022/04/27 08:57:32;;;;;;;;;;;14.80;69.50;;;;;;5086217;28;20371;-70
2022/04/27 08:59:58;;;;;;;;;;;14.70;70.30;;;;;;5084960;28;19916;-70
2022/04/27 09:02:26;;;;;;;;;;;14.30;69.00;;;;;;5086665;28;19912;-70
2022/04/27 09:05:10;;;;;;;;;;;14.70;67.60;;;;;;5084194;28;19985;-71
2022/04/27 09:07:37;;;;;;;;;;;14.70;68.20;;;;;;5086211;28;20075;-70
2022/04/27 09:10:02;;;;;;;;;;;15.00;68.70;;;;;;5067043;28;19911;-68
2022/04/27 09:12:28;;;;;;;;;;;15.10;67.80;;;;;;5086799;28;19923;-68
2022/04/27 09:15:01;;;;;;;;;;;15.10;66.50;;;;;;5084781;28;19918;-68
2022/04/27 09:23:02;;;;;;;;;;;15.70;65.00;;;;;;5086976;28;19922;-66
2022/04/27 09:25:34;;;;;;;;;;;15.80;62.60;;;;;;5077041;28;19916;-71
2022/04/27 09:28:01;;;;;;;;;;;15.60;61.90;;;;;;5085868;28;19919;-67
2022/04/27 09:30:27;;;;;;;;;;;15.40;64.10;;;;;;5084733;28;20205;-70
2022/04/27 09:32:53;;;;;;;;;;;15.50;64.20;;;;;;5085902;28;19934;-69
2022/04/27 09:35:34;;;;;;;;;;;15.80;67.10;;;;;;5084721;28;19912;-66
2022/04/27 09:38:17;;;;;;;;;;;16.00;64.00;;;;;;5085171;28;19915;-68
2022/04/27 09:40:44;;;;;;;;;;;16.00;61.00;;;;;;5084395;28;19908;-69
2022/04/27 09:43:12;;;;;;;;;;;15.80;59.60;;;;;;5077154;28;20341;-70
2022/04/27 09:45:37;;;;;;;;;;;15.50;59.70;;;;;;5084551;28;19947;-69
2022/04/27 09:48:06;;;;;;;;;;;15.30;60.40;;;;;;5082793;28;19959;-69
2022/04/27 09:50:51;;;;;;;;;;;15.40;63.10;;;;;;5083982;28;19915;-71
2022/04/27 09:53:18;;;;;;;;;;;15.50;62.60;;;;;;5085723;28;20065;-70
2022/04/27 09:55:47;;;;;;;;;;;15.40;63.50;;;;;;5078294;28;19911;-70
2022/04/27 09:58:14;;;;;;;;;;;15.50;61.20;;;;;;5085247;28;20374;-66
2022/04/27 10:00:42;;;;;;;;;;;15.70;59.40;;;;;;5059377;28;19961;-68
2022/04/27 10:03:08;;;;;;;;;;;16.00;59.40;;;;;;5072110;28;19994;-65
2022/04/27 10:05:33;;;;;;;;;;;16.00;58.50;;;;;;5083516;28;19912;-66
2022/04/27 10:08:00;;;;;;;;;;;15.80;59.60;;;;;;5085288;28;19965;-65
2022/04/27 10:10:25;;;;;;;;;;;15.80;60.50;;;;;;5083749;28;20368;-84
2022/04/27 10:12:51;;;;;;;;;;;15.80;60.70;;;;;;5086833;28;19912;-76
2022/04/27 10:15:17;;;;;;;;;;;15.90;59.50;;;;;;5075180;28;19914;-78
2022/04/27 10:17:42;;;;;;;;;;;16.10;56.10;;;;;;5085615;28;19916;-78
2022/04/27 10:20:30;;;;;;;;;;;16.10;56.00;;;;;;5083952;28;19958;-79
2022/04/27 10:23:15;;;;;;;;;;;16.00;56.60;;;;;;5086867;28;19976;-78
2022/04/27 10:25:40;;;;;;;;;;;16.10;56.30;;;;;;5085268;28;19958;-77
2022/04/27 10:28:20;;;;;;;;;;;16.20;54.90;;;;;;5078210;28;19916;-81
2022/04/27 10:30:45;;;;;;;;;;;15.90;57.30;;;;;;5085372;28;19916;-70
2022/04/27 10:33:11;;;;;;;;;;;15.90;57.80;;;;;;5085093;28;19915;-71
2022/04/27 10:35:36;;;;;;;;;;;16.50;55.40;;;;;;5083726;28;20004;-81
2022/04/27 10:38:05;;;;;;;;;;;16.40;55.40;;;;;;5085699;28;19915;-78
2022/04/27 10:40:30;;;;;;;;;;;16.50;55.20;;;;;;5076208;28;20236;-81
2022/04/27 10:43:03;;;;;;;;;;;16.30;56.60;;;;;;5085436;28;20259;-78
2022/04/27 10:45:28;;;;;;;;;;;16.50;56.70;;;;;;5084145;28;19912;-77
2022/04/27 10:47:54;;;;;;;;;;;17.00;55.30;;;;;;5085501;28;19915;-83
2022/04/27 10:50:23;;;;;;;;;;;17.30;54.30;;;;;;5084262;28;20378;-83
2022/04/27 10:52:55;;;;;;;;;;;17.40;54.60;;;;;;5086257;28;19918;-83
2022/04/27 10:55:42;;;;;;;;;;;18.10;54.10;;;;;;5080336;28;20346;-81
2022/04/27 10:58:15;;;;;;;;;;;18.40;51.10;;;;;;5086992;28;20005;-78
2022/04/27 11:01:02;;;;;;;;;;;18.70;51.30;;;;;;5070251;28;20032;-80
2022/04/27 11:03:28;;;;;;;;;;;18.60;52.90;;;;;;5078409;28;20371;-78
2022/04/27 11:05:58;;;;;;;;;;;19.30;51.70;;;;;;5083643;28;19907;-77
2022/04/27 11:08:27;;;;;;;;;;;19.70;53.90;;;;;;5085321;28;19908;-76
2022/04/27 11:10:54;;;;;;;;;;;20.00;48.90;;;;;;5082959;28;19969;-78
2022/04/27 11:13:25;;;;;;;;;;;19.70;48.20;;;;;;5085090;28;20378;-78
2022/04/27 11:15:51;;;;;;;;;;;18.90;48.80;;;;;;5082972;28;20426;-75
2022/04/27 11:18:16;;;;;;;;;;;18.40;49.50;;;;;;5088277;28;19919;-78
2022/04/27 11:20:43;;;;;;;;;;;17.90;50.50;;;;;;5068556;28;19919;-78
2022/04/27 11:23:20;;;;;;;;;;;17.80;51.00;;;;;;5069221;28;19912;-78
2022/04/27 11:25:49;;;;;;;;;;;18.20;49.60;;;;;;5086205;28;20053;-79
2022/04/27 11:28:15;;;;;;;;;;;18.90;49.30;;;;;;5084149;28;19912;-78
2022/04/27 11:30:40;;;;;;;;;;;19.10;50.30;;;;;;5086500;28;19911;-77
2022/04/27 11:33:06;;;;;;;;;;;20.00;48.50;;;;;;5088298;28;20008;-78
2022/04/27 11:35:44;;;;;;;;;;;20.00;46.80;;;;;;5086392;28;19912;-76
2022/04/27 11:38:10;;;;;;;;;;;19.60;47.00;;;;;;5088327;28;19920;-77
2022/04/27 11:40:37;;;;;;;;;;;19.20;48.00;;;;;;5086401;28;19919;-79
2022/04/27 11:43:04;;;;;;;;;;;19.50;46.80;;;;;;5088226;28;20006;-79
2022/04/27 11:45:29;;;;;;;;;;;20.00;46.50;;;;;;5086687;28;20046;-78
2022/04/27 11:48:04;;;;;;;;;;;19.90;44.30;;;;;;5087676;28;20022;-78
2022/04/27 11:50:31;;;;;;;;;;;20.50;44.00;;;;;;5079990;28;19943;-79
2022/04/27 11:53:01;;;;;;;;;;;21.00;42.00;;;;;;5088290;28;19912;-79
2022/04/27 11:55:26;;;;;;;;;;;20.80;42.50;;;;;;5079335;28;20005;-71
2022/04/27 11:57:52;;;;;;;;;;;21.40;41.60;;;;;;5086956;28;19967;-73
2022/04/27 12:00:21;;;;;;;;;;;21.60;42.80;;;;;;5085982;28;19916;-77
2022/04/27 12:02:47;;;;;;;;;;;22.40;41.90;;;;;;5087190;28;19919;-77
2022/04/27 12:05:16;;;;;;;;;;;22.60;41.40;;;;;;5085603;28;19932;-75
2022/04/27 12:07:47;;;;;;;;;;;22.70;41.80;;;;;;5087019;28;19971;-81
2022/04/27 12:10:15;;;;;;;;;;;21.50;43.60;;;;;;5085463;28;19992;-73
2022/04/27 12:12:41;;;;;;;;;;;20.50;51.60;;;;;;5086979;28;19912;-67
2022/04/27 12:15:08;;;;;;;;;;;19.60;46.40;;;;;;5084987;28;19919;-68
2022/04/27 12:17:52;;;;;;;;;;;19.00;46.60;;;;;;5086690;28;19938;-67
2022/04/27 12:20:30;;;;;;;;;;;18.60;47.20;;;;;;5085047;28;19982;-69
2022/04/27 12:22:57;;;;;;;;;;;18.10;47.10;;;;;;5086640;28;20423;-68
2022/04/27 12:25:40;;;;;;;;;;;18.40;47.50;;;;;;5085231;28;19919;-67
2022/04/27 12:28:07;;;;;;;;;;;19.50;46.80;;;;;;5086319;28;20032;-68
2022/04/27 12:30:40;;;;;;;;;;;20.60;44.40;;;;;;5084937;28;19912;-68
2022/04/27 12:33:05;;;;;;;;;;;21.40;42.90;;;;;;5072454;28;20462;-66
2022/04/27 12:38:17;;;;;;;;;;;21.00;42.80;;;;;;5086242;28;19934;-67
2022/04/27 12:40:42;;;;;;;;;;;21.70;43.80;;;;;;5080603;28;19908;-67
2022/04/27 12:43:08;;;;;;;;;;;22.00;42.20;;;;;;5081455;28;19912;-67
2022/04/27 12:45:35;;;;;;;;;;;22.20;42.00;;;;;;5084614;28;19958;-68
2022/04/27 12:48:01;;;;;;;;;;;22.00;43.30;;;;;;5086112;28;20014;-66
2022/04/27 12:50:27;;;;;;;;;;;22.10;42.90;;;;;;5084903;28;20391;-67
2022/04/27 12:53:05;;;;;;;;;;;21.60;42.60;;;;;;5086326;28;19919;-66
2022/04/27 12:55:31;;;;;;;;;;;21.50;43.60;;;;;;5078204;28;19918;-68
2022/04/27 12:57:56;;;;;;;;;;;21.10;42.90;;;;;;5086237;28;19915;-67
2022/04/27 13:00:23;;;;;;;;;;;21.00;44.20;;;;;;5084085;28;20375;-67
2022/04/27 13:02:49;;;;;;;;;;;20.40;41.60;;;;;;5083811;28;19915;-66
2022/04/27 13:05:14;;;;;;;;;;;20.00;41.00;;;;;;5076071;28;19919;-67
2022/04/27 13:07:40;;;;;;;;;;;19.90;40.90;;;;;;5086530;28;20290;-67
2022/04/27 13:12:51;;;;;;;;;;;21.00;42.10;;;;;;5086490;28;20008;-69
2022/04/27 13:15:16;;;;;;;;;;;21.60;43.50;;;;;;5084659;28;20397;-68
2022/04/27 13:17:42;;;;;;;;;;;22.90;41.20;;;;;;5085395;28;20294;-68
2022/04/27 13:20:09;;;;;;;;;;;22.50;40.40;;;;;;5075578;28;19908;-69
2022/04/27 13:22:34;;;;;;;;;;;22.10;42.00;;;;;;5086078;28;20022;-69
2022/04/27 13:25:00;;;;;;;;;;;21.90;42.50;;;;;;5084269;28;19963;-67
2022/04/27 13:27:25;;;;;;;;;;;22.70;42.20;;;;;;5085514;28;19919;-68
2022/04/27 13:29:51;;;;;;;;;;;23.00;40.20;;;;;;5084182;28;19919;-68
2022/04/27 13:32:17;;;;;;;;;;;23.10;39.60;;;;;;5085915;28;19908;-67
2022/04/27 13:34:43;;;;;;;;;;;22.00;39.70;;;;;;5083757;28;20378;-67
2022/04/27 13:37:08;;;;;;;;;;;21.00;41.10;;;;;;5085953;28;20357;-67
2022/04/27 13:39:34;;;;;;;;;;;20.60;42.40;;;;;;5083191;28;19912;-68
2022/04/27 13:41:59;;;;;;;;;;;20.40;41.80;;;;;;5086194;28;19927;-67
2022/04/27 13:44:25;;;;;;;;;;;20.00;41.90;;;;;;5069065;28;20418;-68
2022/04/27 13:46:50;;;;;;;;;;;20.00;42.40;;;;;;5086064;28;19908;-68
2022/04/27 13:49:17;;;;;;;;;;;20.00;42.30;;;;;;5084252;28;19918;-68
2022/04/27 13:51:42;;;;;;;;;;;19.70;42.80;;;;;;5086006;28;19914;-67
2022/04/27 13:54:08;;;;;;;;;;;19.40;43.70;;;;;;5083915;28;20350;-70
2022/04/27 13:56:33;;;;;;;;;;;19.30;43.40;;;;;;5086107;28;19919;-69
2022/04/27 13:58:59;;;;;;;;;;;19.00;42.90;;;;;;5083766;28;19912;-67
2022/04/27 14:01:24;;;;;;;;;;;18.90;43.50;;;;;;5085951;28;19915;-68
2022/04/27 14:03:50;;;;;;;;;;;18.90;43.40;;;;;;5085455;28;20002;-68
2022/04/27 14:06:16;;;;;;;;;;;18.90;43.20;;;;;;5083763;28;19927;-68
2022/04/27 14:08:41;;;;;;;;;;;18.90;43.40;;;;;;5085326;28;20353;-68
2022/04/27 14:13:10;;;;;;;;;;;18.70;44.10;;;;;;5082588;28;20377;-67
2022/04/27 14:13:52;;;;;;;;;;;18.40;45.30;;;;;;5073477;28;19999;-67
2022/04/27 14:19:02;;;;;;;;;;;18.40;45.30;;;;;;5083617;28;19915;-66
2022/04/27 14:21:27;;;;;;;;;;;18.50;45.20;;;;;;5085459;28;19967;-67
2022/04/27 14:23:52;;;;;;;;;;;18.40;44.50;;;;;;5084645;28;19918;-65
2022/04/27 14:26:18;;;;;;;;;;;18.50;44.80;;;;;;5084872;28;19915;-66
2022/04/27 14:28:43;;;;;;;;;;;18.60;44.50;;;;;;5084936;28;19935;-67
2022/04/27 14:31:09;;;;;;;;;;;18.40;43.50;;;;;;5083118;28;20362;-67
2022/04/27 14:33:34;;;;;;;;;;;18.20;44.00;;;;;;5084925;28;19908;-67
2022/04/27 14:35:59;;;;;;;;;;;18.30;44.00;;;;;;5083123;28;20374;-67
2022/04/27 14:38:25;;;;;;;;;;;18.40;42.70;;;;;;5085654;28;19964;-67
2022/04/27 14:40:51;;;;;;;;;;;18.80;43.80;;;;;;5083075;28;19919;-67
2022/04/27 14:43:16;;;;;;;;;;;19.00;43.70;;;;;;5066266;28;19920;-68
2022/04/27 14:45:42;;;;;;;;;;;19.00;42.50;;;;;;5064497;28;19918;-67
2022/04/27 14:48:08;;;;;;;;;;;18.90;43.40;;;;;;5084346;28;20003;-68